Aviation Digital Data Service (ADDS)

Output produced by METARs form (0038 UTC 22 December 2014)
found at http://aviationweather.gov/adds/metars/
 
KARA 212353Z 06003KT 7SM OVC100 12/11 A2997 RMK AO2 SLP149 T01220106 10133 20111 56017